sensor_id;sensor_type;location;lat;lon;timestamp;temperature;humidity
47434;SHT31;33184;48.774;8.918;2023-03-03T00:03:30;1.07;79.06
47434;SHT31;33184;48.774;8.918;2023-03-03T00:08:52;1.06;78.92
47434;SHT31;33184;48.774;8.918;2023-03-03T00:14:32;1.07;78.70
47434;SHT31;33184;48.774;8.918;2023-03-03T00:19:53;1.12;79.39
47434;SHT31;33184;48.774;8.918;2023-03-03T00:25:29;1.10;79.05
47434;SHT31;33184;48.774;8.918;2023-03-03T00:30:53;1.02;78.84
47434;SHT31;33184;48.774;8.918;2023-03-03T00:41:35;0.89;79.23
47434;SHT31;33184;48.774;8.918;2023-03-03T00:47:01;0.85;79.27
47434;SHT31;33184;48.774;8.918;2023-03-03T00:52:34;0.74;79.55
47434;SHT31;33184;48.774;8.918;2023-03-03T00:57:55;0.64;79.72
47434;SHT31;33184;48.774;8.918;2023-03-03T01:03:22;0.51;79.91
47434;SHT31;33184;48.774;8.918;2023-03-03T01:08:45;0.48;79.76
47434;SHT31;33184;48.774;8.918;2023-03-03T01:14:06;0.47;79.62
47434;SHT31;33184;48.774;8.918;2023-03-03T01:19:26;0.40;79.78
47434;SHT31;33184;48.774;8.918;2023-03-03T01:24:47;0.33;80.24
47434;SHT31;33184;48.774;8.918;2023-03-03T01:30:08;0.19;80.09
47434;SHT31;33184;48.774;8.918;2023-03-03T01:35:30;0.07;79.70
47434;SHT31;33184;48.774;8.918;2023-03-03T01:40:52;-0.07;79.27
47434;SHT31;33184;48.774;8.918;2023-03-03T01:46:39;-0.20;79.99
47434;SHT31;33184;48.774;8.918;2023-03-03T01:52:12;-0.30;81.34
47434;SHT31;33184;48.774;8.918;2023-03-03T01:57:37;-0.32;81.49
47434;SHT31;33184;48.774;8.918;2023-03-03T02:03:00;-0.35;81.71
47434;SHT31;33184;48.774;8.918;2023-03-03T02:08:26;-0.42;81.07
47434;SHT31;33184;48.774;8.918;2023-03-03T02:13:47;-0.54;80.92
47434;SHT31;33184;48.774;8.918;2023-03-03T02:24:59;-0.61;80.93
47434;SHT31;33184;48.774;8.918;2023-03-03T02:30:24;-0.68;81.16
47434;SHT31;33184;48.774;8.918;2023-03-03T02:35:45;-0.72;81.61
47434;SHT31;33184;48.774;8.918;2023-03-03T02:41:26;-0.64;81.97
47434;SHT31;33184;48.774;8.918;2023-03-03T02:46:50;-0.54;81.55
47434;SHT31;33184;48.774;8.918;2023-03-03T02:52:12;-0.51;81.43
47434;SHT31;33184;48.774;8.918;2023-03-03T02:57:37;-0.56;81.12
47434;SHT31;33184;48.774;8.918;2023-03-03T03:02:58;-0.72;81.31
47434;SHT31;33184;48.774;8.918;2023-03-03T03:08:19;-0.76;81.33
47434;SHT31;33184;48.774;8.918;2023-03-03T03:13:39;-0.93;80.90
47434;SHT31;33184;48.774;8.918;2023-03-03T03:19:01;-0.99;80.79
47434;SHT31;33184;48.774;8.918;2023-03-03T03:24:23;-0.89;81.47
47434;SHT31;33184;48.774;8.918;2023-03-03T03:29:50;-0.85;81.17
47434;SHT31;33184;48.774;8.918;2023-03-03T03:35:12;-0.89;80.58
47434;SHT31;33184;48.774;8.918;2023-03-03T03:40:32;-0.90;80.65
47434;SHT31;33184;48.774;8.918;2023-03-03T03:45:53;-0.89;81.03
47434;SHT31;33184;48.774;8.918;2023-03-03T03:51:14;-0.83;80.78
47434;SHT31;33184;48.774;8.918;2023-03-03T03:56:35;-0.86;80.91
47434;SHT31;33184;48.774;8.918;2023-03-03T04:01:57;-0.70;81.71
47434;SHT31;33184;48.774;8.918;2023-03-03T04:07:19;-0.62;82.03
47434;SHT31;33184;48.774;8.918;2023-03-03T04:12:40;-0.70;82.56
47434;SHT31;33184;48.774;8.918;2023-03-03T04:18:05;-0.75;83.54
47434;SHT31;33184;48.774;8.918;2023-03-03T04:23:26;-0.65;83.98
47434;SHT31;33184;48.774;8.918;2023-03-03T04:28:47;-0.56;84.18
47434;SHT31;33184;48.774;8.918;2023-03-03T04:34:09;-0.31;84.40
47434;SHT31;33184;48.774;8.918;2023-03-03T04:39:30;-0.25;83.81
47434;SHT31;33184;48.774;8.918;2023-03-03T04:44:51;-0.22;83.70
47434;SHT31;33184;48.774;8.918;2023-03-03T04:50:13;-0.25;83.34
47434;SHT31;33184;48.774;8.918;2023-03-03T04:55:36;-0.32;83.24
47434;SHT31;33184;48.774;8.918;2023-03-03T05:00:58;-0.34;83.02
47434;SHT31;33184;48.774;8.918;2023-03-03T05:06:21;-0.28;82.86
47434;SHT31;33184;48.774;8.918;2023-03-03T05:11:42;-0.25;83.19
47434;SHT31;33184;48.774;8.918;2023-03-03T05:17:03;-0.22;83.49
47434;SHT31;33184;48.774;8.918;2023-03-03T05:22:25;-0.17;83.76
47434;SHT31;33184;48.774;8.918;2023-03-03T05:27:46;-0.20;83.78
47434;SHT31;33184;48.774;8.918;2023-03-03T05:33:07;-0.18;84.21
47434;SHT31;33184;48.774;8.918;2023-03-03T05:38:27;-0.13;84.12
47434;SHT31;33184;48.774;8.918;2023-03-03T05:43:48;-0.14;84.12
47434;SHT31;33184;48.774;8.918;2023-03-03T05:49:09;-0.04;84.28
47434;SHT31;33184;48.774;8.918;2023-03-03T05:54:30;0.10;84.17
47434;SHT31;33184;48.774;8.918;2023-03-03T05:59:51;0.16;84.11
47434;SHT31;33184;48.774;8.918;2023-03-03T06:05:11;0.17;84.33
47434;SHT31;33184;48.774;8.918;2023-03-03T06:10:32;0.26;84.22
47434;SHT31;33184;48.774;8.918;2023-03-03T06:15:57;0.24;83.99
47434;SHT31;33184;48.774;8.918;2023-03-03T06:21:17;0.21;84.18
47434;SHT31;33184;48.774;8.918;2023-03-03T06:26:38;0.16;84.22
47434;SHT31;33184;48.774;8.918;2023-03-03T06:31:58;0.31;84.57
47434;SHT31;33184;48.774;8.918;2023-03-03T06:37:19;0.26;84.54
47434;SHT31;33184;48.774;8.918;2023-03-03T06:42:39;0.29;84.48
47434;SHT31;33184;48.774;8.918;2023-03-03T06:48:00;0.37;84.44
47434;SHT31;33184;48.774;8.918;2023-03-03T06:53:21;0.36;84.44
47434;SHT31;33184;48.774;8.918;2023-03-03T06:58:42;0.30;84.77
47434;SHT31;33184;48.774;8.918;2023-03-03T07:04:26;0.31;85.26
47434;SHT31;33184;48.774;8.918;2023-03-03T07:09:53;0.33;85.40
47434;SHT31;33184;48.774;8.918;2023-03-03T07:15:22;0.47;85.17
47434;SHT31;33184;48.774;8.918;2023-03-03T07:20:43;0.58;84.68
47434;SHT31;33184;48.774;8.918;2023-03-03T07:26:28;0.65;84.08
47434;SHT31;33184;48.774;8.918;2023-03-03T07:31:50;0.78;84.21
47434;SHT31;33184;48.774;8.918;2023-03-03T07:42:51;0.85;84.69
47434;SHT31;33184;48.774;8.918;2023-03-03T07:48:30;0.93;84.65
47434;SHT31;33184;48.774;8.918;2023-03-03T07:54:09;1.00;84.53
47434;SHT31;33184;48.774;8.918;2023-03-03T07:59:34;1.07;84.58
47434;SHT31;33184;48.774;8.918;2023-03-03T08:04:55;1.26;84.37
47434;SHT31;33184;48.774;8.918;2023-03-03T08:10:35;1.37;83.92
47434;SHT31;33184;48.774;8.918;2023-03-03T08:16:20;1.53;83.34
47434;SHT31;33184;48.774;8.918;2023-03-03T08:21:43;1.73;82.90
47434;SHT31;33184;48.774;8.918;2023-03-03T08:27:04;1.90;82.52
47434;SHT31;33184;48.774;8.918;2023-03-03T08:32:25;2.11;82.14
47434;SHT31;33184;48.774;8.918;2023-03-03T08:37:45;2.25;81.16
47434;SHT31;33184;48.774;8.918;2023-03-03T08:43:06;2.52;80.50
47434;SHT31;33184;48.774;8.918;2023-03-03T08:48:27;2.76;79.80
47434;SHT31;33184;48.774;8.918;2023-03-03T08:53:48;2.87;78.62
47434;SHT31;33184;48.774;8.918;2023-03-03T08:59:08;3.03;77.59
47434;SHT31;33184;48.774;8.918;2023-03-03T09:04:29;3.21;76.96
47434;SHT31;33184;48.774;8.918;2023-03-03T09:09:49;3.18;76.07
47434;SHT31;33184;48.774;8.918;2023-03-03T09:20:51;3.41;76.33
47434;SHT31;33184;48.774;8.918;2023-03-03T09:26:44;3.66;75.38
47434;SHT31;33184;48.774;8.918;2023-03-03T09:37:39;4.10;74.56
47434;SHT31;33184;48.774;8.918;2023-03-03T09:54:11;4.88;70.17
47434;SHT31;33184;48.774;8.918;2023-03-03T10:05:48;4.92;69.34
47434;SHT31;33184;48.774;8.918;2023-03-03T10:11:17;5.10;69.67
47434;SHT31;33184;48.774;8.918;2023-03-03T10:56:00;7.10;63.25
47434;SHT31;33184;48.774;8.918;2023-03-03T11:01:43;7.76;61.92
47434;SHT31;33184;48.774;8.918;2023-03-03T11:07:12;7.72;59.37
47434;SHT31;33184;48.774;8.918;2023-03-03T11:12:59;8.09;58.54
47434;SHT31;33184;48.774;8.918;2023-03-03T11:24:33;8.00;58.21
47434;SHT31;33184;48.774;8.918;2023-03-03T11:30:20;7.75;58.43
47434;SHT31;33184;48.774;8.918;2023-03-03T11:35:52;7.96;57.20
47434;SHT31;33184;48.774;8.918;2023-03-03T11:41:19;7.95;58.82
47434;SHT31;33184;48.774;8.918;2023-03-03T11:46:52;7.76;56.15
47434;SHT31;33184;48.774;8.918;2023-03-03T11:52:23;7.82;55.85
47434;SHT31;33184;48.774;8.918;2023-03-03T11:58:19;7.74;56.64
47434;SHT31;33184;48.774;8.918;2023-03-03T12:26:27;8.76;55.59
47434;SHT31;33184;48.774;8.918;2023-03-03T12:43:39;9.11;54.58
47434;SHT31;33184;48.774;8.918;2023-03-03T12:49:03;9.16;54.58
47434;SHT31;33184;48.774;8.918;2023-03-03T12:54:29;9.30;54.40
47434;SHT31;33184;48.774;8.918;2023-03-03T13:11:51;11.98;47.34
47434;SHT31;33184;48.774;8.918;2023-03-03T13:29:01;12.29;43.51
47434;SHT31;33184;48.774;8.918;2023-03-03T13:34:55;12.02;43.87
47434;SHT31;33184;48.774;8.918;2023-03-03T13:41:18;12.33;42.99
47434;SHT31;33184;48.774;8.918;2023-03-03T13:52:15;11.88;42.88
47434;SHT31;33184;48.774;8.918;2023-03-03T14:14:47;12.00;43.04
47434;SHT31;33184;48.774;8.918;2023-03-03T14:20:18;12.18;44.52
47434;SHT31;33184;48.774;8.918;2023-03-03T14:36:42;11.47;45.60
47434;SHT31;33184;48.774;8.918;2023-03-03T14:42:30;11.59;44.93
47434;SHT31;33184;48.774;8.918;2023-03-03T14:47:51;11.77;45.32
47434;SHT31;33184;48.774;8.918;2023-03-03T14:58:42;11.24;44.71
47434;SHT31;33184;48.774;8.918;2023-03-03T15:04:09;11.03;46.19
47434;SHT31;33184;48.774;8.918;2023-03-03T15:09:49;11.03;46.82
47434;SHT31;33184;48.774;8.918;2023-03-03T15:15:20;10.48;46.82
47434;SHT31;33184;48.774;8.918;2023-03-03T15:21:04;10.55;47.87
47434;SHT31;33184;48.774;8.918;2023-03-03T15:26:45;10.45;48.35
47434;SHT31;33184;48.774;8.918;2023-03-03T15:37:55;10.42;48.72
47434;SHT31;33184;48.774;8.918;2023-03-03T15:59:48;10.46;47.90
47434;SHT31;33184;48.774;8.918;2023-03-03T16:05:30;10.22;49.32
47434;SHT31;33184;48.774;8.918;2023-03-03T16:11:01;10.12;49.52
47434;SHT31;33184;48.774;8.918;2023-03-03T16:16:44;9.98;50.28
47434;SHT31;33184;48.774;8.918;2023-03-03T16:22:34;9.75;51.02
47434;SHT31;33184;48.774;8.918;2023-03-03T16:45:23;8.96;52.97
47434;SHT31;33184;48.774;8.918;2023-03-03T16:51:02;8.79;53.30
47434;SHT31;33184;48.774;8.918;2023-03-03T17:07:50;7.61;56.29
47434;SHT31;33184;48.774;8.918;2023-03-03T17:19:13;7.15;57.27
47434;SHT31;33184;48.774;8.918;2023-03-03T17:41:19;6.70;60.49
47434;SHT31;33184;48.774;8.918;2023-03-03T17:46:40;6.50;60.73
47434;SHT31;33184;48.774;8.918;2023-03-03T18:32:02;5.36;66.03
47434;SHT31;33184;48.774;8.918;2023-03-03T18:42:50;5.16;66.80
47434;SHT31;33184;48.774;8.918;2023-03-03T18:48:13;5.10;67.29
47434;SHT31;33184;48.774;8.918;2023-03-03T18:53:35;5.02;67.62
47434;SHT31;33184;48.774;8.918;2023-03-03T18:58:56;4.96;67.74
47434;SHT31;33184;48.774;8.918;2023-03-03T19:04:19;4.89;67.90
47434;SHT31;33184;48.774;8.918;2023-03-03T19:09:47;4.87;68.00
47434;SHT31;33184;48.774;8.918;2023-03-03T19:20:54;4.69;68.05
47434;SHT31;33184;48.774;8.918;2023-03-03T19:31:54;4.69;67.91
47434;SHT31;33184;48.774;8.918;2023-03-03T19:42:55;4.28;68.04
47434;SHT31;33184;48.774;8.918;2023-03-03T19:48:39;4.21;68.63
47434;SHT31;33184;48.774;8.918;2023-03-03T19:59:51;4.24;68.91
47434;SHT31;33184;48.774;8.918;2023-03-03T20:11:21;4.10;69.60
47434;SHT31;33184;48.774;8.918;2023-03-03T20:16:49;3.89;70.30
47434;SHT31;33184;48.774;8.918;2023-03-03T20:22:18;3.90;70.39
47434;SHT31;33184;48.774;8.918;2023-03-03T20:45:29;3.39;71.83
47434;SHT31;33184;48.774;8.918;2023-03-03T20:51:08;3.32;72.09
47434;SHT31;33184;48.774;8.918;2023-03-03T20:56:38;3.12;72.73
47434;SHT31;33184;48.774;8.918;2023-03-03T21:02:15;2.98;73.04
47434;SHT31;33184;48.774;8.918;2023-03-03T21:07:59;2.87;73.20
47434;SHT31;33184;48.774;8.918;2023-03-03T21:13:33;2.80;73.60
47434;SHT31;33184;48.774;8.918;2023-03-03T21:19:09;2.79;73.44
47434;SHT31;33184;48.774;8.918;2023-03-03T21:24:49;2.74;73.21
47434;SHT31;33184;48.774;8.918;2023-03-03T21:30:15;2.66;73.13
47434;SHT31;33184;48.774;8.918;2023-03-03T21:35:56;2.53;73.10
47434;SHT31;33184;48.774;8.918;2023-03-03T21:41:17;2.36;73.44
47434;SHT31;33184;48.774;8.918;2023-03-03T21:46:38;2.28;73.30
47434;SHT31;33184;48.774;8.918;2023-03-03T21:51:59;2.12;73.45
47434;SHT31;33184;48.774;8.918;2023-03-03T21:57:20;2.05;73.89
47434;SHT31;33184;48.774;8.918;2023-03-03T22:02:40;1.98;73.85
47434;SHT31;33184;48.774;8.918;2023-03-03T22:08:01;1.87;74.21
47434;SHT31;33184;48.774;8.918;2023-03-03T22:13:24;1.81;74.29
47434;SHT31;33184;48.774;8.918;2023-03-03T22:18:44;1.80;74.20
47434;SHT31;33184;48.774;8.918;2023-03-03T22:24:06;1.78;74.63
47434;SHT31;33184;48.774;8.918;2023-03-03T22:29:27;1.78;74.56
47434;SHT31;33184;48.774;8.918;2023-03-03T22:34:47;1.64;74.80
47434;SHT31;33184;48.774;8.918;2023-03-03T22:40:08;1.46;74.89
47434;SHT31;33184;48.774;8.918;2023-03-03T22:45:29;1.36;74.90
47434;SHT31;33184;48.774;8.918;2023-03-03T22:50:50;1.27;74.84
47434;SHT31;33184;48.774;8.918;2023-03-03T22:56:11;1.26;75.30
47434;SHT31;33184;48.774;8.918;2023-03-03T23:01:31;1.20;75.69
47434;SHT31;33184;48.774;8.918;2023-03-03T23:06:52;1.15;75.65
47434;SHT31;33184;48.774;8.918;2023-03-03T23:12:12;1.09;75.71
47434;SHT31;33184;48.774;8.918;2023-03-03T23:17:33;1.02;75.08
47434;SHT31;33184;48.774;8.918;2023-03-03T23:22:54;0.93;74.92
47434;SHT31;33184;48.774;8.918;2023-03-03T23:28:14;0.89;74.89
47434;SHT31;33184;48.774;8.918;2023-03-03T23:33:35;0.82;75.38
47434;SHT31;33184;48.774;8.918;2023-03-03T23:38:56;0.76;75.62
47434;SHT31;33184;48.774;8.918;2023-03-03T23:44:16;0.64;75.54
47434;SHT31;33184;48.774;8.918;2023-03-03T23:49:37;0.64;75.27
47434;SHT31;33184;48.774;8.918;2023-03-03T23:54:58;0.60;75.28
